sensor_id;sensor_type;location;lat;lon;timestamp;P1;durP1;ratioP1;P2;durP2;ratioP2
3274;SDS011;1649;53.672;10.064;2023-04-03T00:01:09;6.30;;;2.80;;
3274;SDS011;1649;53.672;10.064;2023-04-03T00:03:35;8.00;;;3.17;;
3274;SDS011;1649;53.672;10.064;2023-04-03T00:06:01;6.97;;;2.63;;
3274;SDS011;1649;53.672;10.064;2023-04-03T00:08:27;7.20;;;3.20;;
3274;SDS011;1649;53.672;10.064;2023-04-03T00:10:55;8.33;;;2.60;;
3274;SDS011;1649;53.672;10.064;2023-04-03T00:13:21;6.90;;;3.07;;
3274;SDS011;1649;53.672;10.064;2023-04-03T00:15:47;5.50;;;3.10;;
3274;SDS011;1649;53.672;10.064;2023-04-03T00:18:13;5.00;;;2.60;;
3274;SDS011;1649;53.672;10.064;2023-04-03T00:20:38;7.43;;;3.20;;
3274;SDS011;1649;53.672;10.064;2023-04-03T00:23:04;5.97;;;3.30;;
3274;SDS011;1649;53.672;10.064;2023-04-03T00:25:30;8.33;;;2.97;;
3274;SDS011;1649;53.672;10.064;2023-04-03T00:27:55;6.07;;;2.77;;
3274;SDS011;1649;53.672;10.064;2023-04-03T00:30:21;7.60;;;2.97;;
3274;SDS011;1649;53.672;10.064;2023-04-03T00:32:47;7.45;;;3.13;;
3274;SDS011;1649;53.672;10.064;2023-04-03T00:35:14;7.93;;;3.47;;
3274;SDS011;1649;53.672;10.064;2023-04-03T00:37:41;8.37;;;3.10;;
3274;SDS011;1649;53.672;10.064;2023-04-03T00:40:07;6.87;;;2.70;;
3274;SDS011;1649;53.672;10.064;2023-04-03T00:42:35;8.83;;;2.73;;
3274;SDS011;1649;53.672;10.064;2023-04-03T00:47:27;7.03;;;3.10;;
3274;SDS011;1649;53.672;10.064;2023-04-03T00:49:54;6.67;;;3.03;;
3274;SDS011;1649;53.672;10.064;2023-04-03T00:52:21;6.63;;;3.10;;
3274;SDS011;1649;53.672;10.064;2023-04-03T00:54:50;7.90;;;3.13;;
3274;SDS011;1649;53.672;10.064;2023-04-03T00:57:18;12.67;;;2.47;;
3274;SDS011;1649;53.672;10.064;2023-04-03T00:59:45;7.07;;;2.83;;
3274;SDS011;1649;53.672;10.064;2023-04-03T01:02:15;6.05;;;2.75;;
3274;SDS011;1649;53.672;10.064;2023-04-03T01:04:42;6.93;;;2.90;;
3274;SDS011;1649;53.672;10.064;2023-04-03T01:07:09;7.63;;;3.10;;
3274;SDS011;1649;53.672;10.064;2023-04-03T01:09:41;7.13;;;3.07;;
3274;SDS011;1649;53.672;10.064;2023-04-03T01:12:18;9.33;;;3.20;;
3274;SDS011;1649;53.672;10.064;2023-04-03T01:14:46;5.38;;;2.67;;
3274;SDS011;1649;53.672;10.064;2023-04-03T01:22:35;7.30;;;2.63;;
3274;SDS011;1649;53.672;10.064;2023-04-03T01:25:13;5.47;;;3.10;;
3274;SDS011;1649;53.672;10.064;2023-04-03T01:27:38;8.10;;;3.13;;
3274;SDS011;1649;53.672;10.064;2023-04-03T01:30:04;6.97;;;2.30;;
3274;SDS011;1649;53.672;10.064;2023-04-03T01:32:30;9.93;;;3.15;;
3274;SDS011;1649;53.672;10.064;2023-04-03T01:34:56;5.87;;;2.93;;
3274;SDS011;1649;53.672;10.064;2023-04-03T01:37:21;6.60;;;3.03;;
3274;SDS011;1649;53.672;10.064;2023-04-03T01:39:47;6.87;;;3.30;;
3274;SDS011;1649;53.672;10.064;2023-04-03T01:42:12;7.93;;;3.10;;
3274;SDS011;1649;53.672;10.064;2023-04-03T01:44:38;7.37;;;2.80;;
3274;SDS011;1649;53.672;10.064;2023-04-03T01:47:05;8.97;;;3.53;;
3274;SDS011;1649;53.672;10.064;2023-04-03T01:49:32;5.43;;;2.80;;
3274;SDS011;1649;53.672;10.064;2023-04-03T01:51:57;5.60;;;2.90;;
3274;SDS011;1649;53.672;10.064;2023-04-03T01:54:23;7.13;;;2.73;;
3274;SDS011;1649;53.672;10.064;2023-04-03T01:56:48;7.27;;;3.17;;
3274;SDS011;1649;53.672;10.064;2023-04-03T01:59:14;4.97;;;2.50;;
3274;SDS011;1649;53.672;10.064;2023-04-03T02:01:41;7.40;;;3.57;;
3274;SDS011;1649;53.672;10.064;2023-04-03T02:04:08;7.77;;;2.90;;
3274;SDS011;1649;53.672;10.064;2023-04-03T02:06:34;9.87;;;2.83;;
3274;SDS011;1649;53.672;10.064;2023-04-03T02:09:00;8.73;;;3.07;;
3274;SDS011;1649;53.672;10.064;2023-04-03T02:11:25;10.17;;;3.60;;
3274;SDS011;1649;53.672;10.064;2023-04-03T02:13:51;12.30;;;3.20;;
3274;SDS011;1649;53.672;10.064;2023-04-03T02:16:16;7.77;;;3.00;;
3274;SDS011;1649;53.672;10.064;2023-04-03T02:18:42;10.60;;;3.00;;
3274;SDS011;1649;53.672;10.064;2023-04-03T02:21:07;12.63;;;3.27;;
3274;SDS011;1649;53.672;10.064;2023-04-03T02:23:33;7.00;;;2.97;;
3274;SDS011;1649;53.672;10.064;2023-04-03T02:26:04;8.27;;;3.03;;
3274;SDS011;1649;53.672;10.064;2023-04-03T02:28:37;6.17;;;3.07;;
3274;SDS011;1649;53.672;10.064;2023-04-03T02:31:03;7.00;;;3.40;;
3274;SDS011;1649;53.672;10.064;2023-04-03T02:33:29;6.80;;;2.87;;
3274;SDS011;1649;53.672;10.064;2023-04-03T02:35:55;11.70;;;3.40;;
3274;SDS011;1649;53.672;10.064;2023-04-03T02:38:22;6.15;;;3.53;;
3274;SDS011;1649;53.672;10.064;2023-04-03T02:40:48;7.20;;;3.17;;
3274;SDS011;1649;53.672;10.064;2023-04-03T02:43:14;8.80;;;3.47;;
3274;SDS011;1649;53.672;10.064;2023-04-03T02:45:39;6.93;;;3.07;;
3274;SDS011;1649;53.672;10.064;2023-04-03T02:48:05;7.47;;;3.30;;
3274;SDS011;1649;53.672;10.064;2023-04-03T02:50:30;8.33;;;3.33;;
3274;SDS011;1649;53.672;10.064;2023-04-03T02:52:56;6.90;;;3.30;;
3274;SDS011;1649;53.672;10.064;2023-04-03T02:55:21;5.90;;;3.13;;
3274;SDS011;1649;53.672;10.064;2023-04-03T02:57:47;10.57;;;3.53;;
3274;SDS011;1649;53.672;10.064;2023-04-03T03:00:13;6.70;;;3.00;;
3274;SDS011;1649;53.672;10.064;2023-04-03T03:02:39;8.10;;;3.50;;
3274;SDS011;1649;53.672;10.064;2023-04-03T03:05:05;9.57;;;3.70;;
3274;SDS011;1649;53.672;10.064;2023-04-03T03:07:31;7.83;;;3.73;;
3274;SDS011;1649;53.672;10.064;2023-04-03T03:09:57;8.50;;;3.90;;
3274;SDS011;1649;53.672;10.064;2023-04-03T03:12:22;7.53;;;3.20;;
3274;SDS011;1649;53.672;10.064;2023-04-03T03:14:49;13.23;;;3.85;;
3274;SDS011;1649;53.672;10.064;2023-04-03T03:17:14;7.23;;;3.30;;
3274;SDS011;1649;53.672;10.064;2023-04-03T03:19:40;10.37;;;3.00;;
3274;SDS011;1649;53.672;10.064;2023-04-03T03:22:05;9.80;;;3.40;;
3274;SDS011;1649;53.672;10.064;2023-04-03T03:24:31;7.60;;;3.47;;
3274;SDS011;1649;53.672;10.064;2023-04-03T03:26:56;8.37;;;3.30;;
3274;SDS011;1649;53.672;10.064;2023-04-03T03:29:22;11.60;;;3.60;;
3274;SDS011;1649;53.672;10.064;2023-04-03T03:31:47;6.90;;;3.30;;
3274;SDS011;1649;53.672;10.064;2023-04-03T03:34:13;7.10;;;3.60;;
3274;SDS011;1649;53.672;10.064;2023-04-03T03:36:38;8.53;;;3.53;;
3274;SDS011;1649;53.672;10.064;2023-04-03T03:39:04;8.90;;;3.50;;
3274;SDS011;1649;53.672;10.064;2023-04-03T03:41:30;6.43;;;3.50;;
3274;SDS011;1649;53.672;10.064;2023-04-03T03:43:56;8.30;;;3.60;;
3274;SDS011;1649;53.672;10.064;2023-04-03T03:46:21;8.00;;;3.20;;
3274;SDS011;1649;53.672;10.064;2023-04-03T03:48:47;7.47;;;3.53;;
3274;SDS011;1649;53.672;10.064;2023-04-03T03:51:12;9.10;;;3.30;;
3274;SDS011;1649;53.672;10.064;2023-04-03T03:53:38;6.90;;;3.40;;
3274;SDS011;1649;53.672;10.064;2023-04-03T03:56:04;7.40;;;3.67;;
3274;SDS011;1649;53.672;10.064;2023-04-03T03:58:30;6.25;;;2.70;;
3274;SDS011;1649;53.672;10.064;2023-04-03T04:00:57;10.67;;;3.50;;
3274;SDS011;1649;53.672;10.064;2023-04-03T04:03:26;9.73;;;3.50;;
3274;SDS011;1649;53.672;10.064;2023-04-03T04:05:51;6.23;;;3.30;;
3274;SDS011;1649;53.672;10.064;2023-04-03T04:08:17;11.23;;;3.37;;
3274;SDS011;1649;53.672;10.064;2023-04-03T04:10:42;7.60;;;3.77;;
3274;SDS011;1649;53.672;10.064;2023-04-03T04:13:08;6.70;;;3.57;;
3274;SDS011;1649;53.672;10.064;2023-04-03T04:15:33;9.60;;;4.10;;
3274;SDS011;1649;53.672;10.064;2023-04-03T04:17:59;6.87;;;3.63;;
3274;SDS011;1649;53.672;10.064;2023-04-03T04:20:24;8.13;;;3.60;;
3274;SDS011;1649;53.672;10.064;2023-04-03T04:22:50;8.80;;;4.07;;
3274;SDS011;1649;53.672;10.064;2023-04-03T04:25:15;7.67;;;3.70;;
3274;SDS011;1649;53.672;10.064;2023-04-03T04:27:41;7.50;;;3.93;;
3274;SDS011;1649;53.672;10.064;2023-04-03T04:30:07;7.97;;;3.50;;
3274;SDS011;1649;53.672;10.064;2023-04-03T04:32:33;10.67;;;4.40;;
3274;SDS011;1649;53.672;10.064;2023-04-03T04:34:58;8.60;;;4.50;;
3274;SDS011;1649;53.672;10.064;2023-04-03T04:37:24;8.80;;;4.23;;
3274;SDS011;1649;53.672;10.064;2023-04-03T04:39:49;6.90;;;4.00;;
3274;SDS011;1649;53.672;10.064;2023-04-03T04:42:15;10.20;;;3.53;;
3274;SDS011;1649;53.672;10.064;2023-04-03T04:44:40;5.57;;;3.40;;
3274;SDS011;1649;53.672;10.064;2023-04-03T04:47:06;7.30;;;4.40;;
3274;SDS011;1649;53.672;10.064;2023-04-03T04:49:31;7.77;;;4.30;;
3274;SDS011;1649;53.672;10.064;2023-04-03T04:51:57;10.27;;;4.30;;
3274;SDS011;1649;53.672;10.064;2023-04-03T04:54:22;9.83;;;3.93;;
3274;SDS011;1649;53.672;10.064;2023-04-03T04:56:48;7.60;;;3.60;;
3274;SDS011;1649;53.672;10.064;2023-04-03T04:59:13;6.20;;;4.00;;
3274;SDS011;1649;53.672;10.064;2023-04-03T05:01:39;6.23;;;3.90;;
3274;SDS011;1649;53.672;10.064;2023-04-03T05:04:05;11.73;;;3.63;;
3274;SDS011;1649;53.672;10.064;2023-04-03T05:06:30;6.37;;;4.23;;
3274;SDS011;1649;53.672;10.064;2023-04-03T05:08:56;6.97;;;4.13;;
3274;SDS011;1649;53.672;10.064;2023-04-03T05:11:22;12.03;;;4.53;;
3274;SDS011;1649;53.672;10.064;2023-04-03T05:13:48;6.63;;;4.10;;
3274;SDS011;1649;53.672;10.064;2023-04-03T05:16:14;7.37;;;4.27;;
3274;SDS011;1649;53.672;10.064;2023-04-03T05:18:40;8.23;;;4.20;;
3274;SDS011;1649;53.672;10.064;2023-04-03T05:21:05;7.57;;;3.83;;
3274;SDS011;1649;53.672;10.064;2023-04-03T05:23:31;8.80;;;4.03;;
3274;SDS011;1649;53.672;10.064;2023-04-03T05:25:56;7.37;;;3.37;;
3274;SDS011;1649;53.672;10.064;2023-04-03T05:28:22;8.93;;;4.10;;
3274;SDS011;1649;53.672;10.064;2023-04-03T05:30:54;8.03;;;4.07;;
3274;SDS011;1649;53.672;10.064;2023-04-03T05:33:21;7.30;;;4.07;;
3274;SDS011;1649;53.672;10.064;2023-04-03T05:35:47;7.07;;;3.72;;
3274;SDS011;1649;53.672;10.064;2023-04-03T05:38:12;8.33;;;4.30;;
3274;SDS011;1649;53.672;10.064;2023-04-03T05:40:38;6.37;;;3.53;;
3274;SDS011;1649;53.672;10.064;2023-04-03T05:43:03;9.77;;;4.00;;
3274;SDS011;1649;53.672;10.064;2023-04-03T05:45:29;11.45;;;4.55;;
3274;SDS011;1649;53.672;10.064;2023-04-03T05:47:55;7.77;;;3.90;;
3274;SDS011;1649;53.672;10.064;2023-04-03T05:50:21;8.67;;;4.37;;
3274;SDS011;1649;53.672;10.064;2023-04-03T05:52:46;9.50;;;4.17;;
3274;SDS011;1649;53.672;10.064;2023-04-03T05:55:13;7.60;;;4.20;;
3274;SDS011;1649;53.672;10.064;2023-04-03T05:57:39;8.00;;;4.40;;
3274;SDS011;1649;53.672;10.064;2023-04-03T06:00:05;8.47;;;4.10;;
3274;SDS011;1649;53.672;10.064;2023-04-03T06:02:32;12.13;;;4.47;;
3274;SDS011;1649;53.672;10.064;2023-04-03T06:04:57;7.27;;;4.20;;
3274;SDS011;1649;53.672;10.064;2023-04-03T06:07:23;16.13;;;3.80;;
3274;SDS011;1649;53.672;10.064;2023-04-03T06:09:53;7.73;;;4.13;;
3274;SDS011;1649;53.672;10.064;2023-04-03T06:12:20;7.03;;;3.23;;
3274;SDS011;1649;53.672;10.064;2023-04-03T06:14:46;10.10;;;4.60;;
3274;SDS011;1649;53.672;10.064;2023-04-03T06:17:11;5.90;;;3.70;;
3274;SDS011;1649;53.672;10.064;2023-04-03T06:19:37;9.70;;;4.00;;
3274;SDS011;1649;53.672;10.064;2023-04-03T06:22:02;6.90;;;4.00;;
3274;SDS011;1649;53.672;10.064;2023-04-03T06:24:28;9.63;;;4.40;;
3274;SDS011;1649;53.672;10.064;2023-04-03T06:26:55;7.20;;;3.63;;
3274;SDS011;1649;53.672;10.064;2023-04-03T06:29:20;7.50;;;3.20;;
3274;SDS011;1649;53.672;10.064;2023-04-03T06:31:46;15.13;;;3.80;;
3274;SDS011;1649;53.672;10.064;2023-04-03T06:34:12;8.13;;;3.23;;
3274;SDS011;1649;53.672;10.064;2023-04-03T06:36:38;7.80;;;2.77;;
3274;SDS011;1649;53.672;10.064;2023-04-03T06:39:04;9.50;;;2.90;;
3274;SDS011;1649;53.672;10.064;2023-04-03T06:41:30;6.20;;;2.70;;
3274;SDS011;1649;53.672;10.064;2023-04-03T06:43:56;8.37;;;2.27;;
3274;SDS011;1649;53.672;10.064;2023-04-03T06:46:23;6.20;;;2.70;;
3274;SDS011;1649;53.672;10.064;2023-04-03T06:48:49;7.03;;;2.50;;
3274;SDS011;1649;53.672;10.064;2023-04-03T06:51:19;6.57;;;2.43;;
3274;SDS011;1649;53.672;10.064;2023-04-03T06:53:47;6.83;;;2.77;;
3274;SDS011;1649;53.672;10.064;2023-04-03T06:56:13;7.87;;;2.60;;
3274;SDS011;1649;53.672;10.064;2023-04-03T06:58:39;8.00;;;2.50;;
3274;SDS011;1649;53.672;10.064;2023-04-03T07:01:05;5.60;;;1.93;;
3274;SDS011;1649;53.672;10.064;2023-04-03T07:03:31;6.50;;;2.30;;
3274;SDS011;1649;53.672;10.064;2023-04-03T07:05:56;6.27;;;2.30;;
3274;SDS011;1649;53.672;10.064;2023-04-03T07:08:22;6.00;;;2.50;;
3274;SDS011;1649;53.672;10.064;2023-04-03T07:10:48;5.60;;;2.30;;
3274;SDS011;1649;53.672;10.064;2023-04-03T07:13:15;8.23;;;2.30;;
3274;SDS011;1649;53.672;10.064;2023-04-03T07:15:40;7.17;;;2.03;;
3274;SDS011;1649;53.672;10.064;2023-04-03T07:18:06;7.23;;;2.40;;
3274;SDS011;1649;53.672;10.064;2023-04-03T07:20:32;5.90;;;2.10;;
3274;SDS011;1649;53.672;10.064;2023-04-03T07:22:57;6.20;;;2.30;;
3274;SDS011;1649;53.672;10.064;2023-04-03T07:25:23;5.70;;;2.17;;
3274;SDS011;1649;53.672;10.064;2023-04-03T07:27:48;7.50;;;2.17;;
3274;SDS011;1649;53.672;10.064;2023-04-03T07:30:14;6.20;;;2.10;;
3274;SDS011;1649;53.672;10.064;2023-04-03T07:32:40;7.60;;;2.23;;
3274;SDS011;1649;53.672;10.064;2023-04-03T07:35:06;6.50;;;2.40;;
3274;SDS011;1649;53.672;10.064;2023-04-03T07:37:31;9.20;;;2.50;;
3274;SDS011;1649;53.672;10.064;2023-04-03T07:39:57;6.30;;;2.17;;
3274;SDS011;1649;53.672;10.064;2023-04-03T07:42:24;5.83;;;2.20;;
3274;SDS011;1649;53.672;10.064;2023-04-03T07:44:52;7.50;;;2.20;;
3274;SDS011;1649;53.672;10.064;2023-04-03T07:47:18;7.67;;;2.07;;
3274;SDS011;1649;53.672;10.064;2023-04-03T07:49:45;7.83;;;2.30;;
3274;SDS011;1649;53.672;10.064;2023-04-03T07:52:11;10.43;;;2.40;;
3274;SDS011;1649;53.672;10.064;2023-04-03T07:54:36;5.80;;;1.93;;
3274;SDS011;1649;53.672;10.064;2023-04-03T07:57:02;5.07;;;1.60;;
3274;SDS011;1649;53.672;10.064;2023-04-03T07:59:27;5.50;;;1.77;;
3274;SDS011;1649;53.672;10.064;2023-04-03T08:01:53;5.10;;;1.50;;
3274;SDS011;1649;53.672;10.064;2023-04-03T08:04:18;8.30;;;1.60;;
3274;SDS011;1649;53.672;10.064;2023-04-03T08:06:44;4.97;;;1.40;;
3274;SDS011;1649;53.672;10.064;2023-04-03T08:09:10;3.88;;;1.08;;
3274;SDS011;1649;53.672;10.064;2023-04-03T08:11:35;6.27;;;1.83;;
3274;SDS011;1649;53.672;10.064;2023-04-03T08:14:03;5.83;;;1.60;;
3274;SDS011;1649;53.672;10.064;2023-04-03T08:16:28;8.73;;;1.70;;
3274;SDS011;1649;53.672;10.064;2023-04-03T08:18:54;5.60;;;1.67;;
3274;SDS011;1649;53.672;10.064;2023-04-03T08:21:20;5.90;;;1.87;;
3274;SDS011;1649;53.672;10.064;2023-04-03T08:23:47;6.97;;;1.83;;
3274;SDS011;1649;53.672;10.064;2023-04-03T08:26:15;4.70;;;1.43;;
3274;SDS011;1649;53.672;10.064;2023-04-03T08:28:42;6.30;;;1.87;;
3274;SDS011;1649;53.672;10.064;2023-04-03T08:31:09;5.50;;;2.03;;
3274;SDS011;1649;53.672;10.064;2023-04-03T08:33:37;5.30;;;1.40;;
3274;SDS011;1649;53.672;10.064;2023-04-03T08:36:04;5.93;;;1.50;;
3274;SDS011;1649;53.672;10.064;2023-04-03T08:38:31;7.47;;;1.60;;
3274;SDS011;1649;53.672;10.064;2023-04-03T08:41:02;4.70;;;1.67;;
3274;SDS011;1649;53.672;10.064;2023-04-03T08:46:06;4.50;;;1.40;;
3274;SDS011;1649;53.672;10.064;2023-04-03T08:48:39;7.10;;;1.97;;
3274;SDS011;1649;53.672;10.064;2023-04-03T08:51:14;8.40;;;1.57;;
3274;SDS011;1649;53.672;10.064;2023-04-03T08:53:43;4.10;;;1.30;;
3274;SDS011;1649;53.672;10.064;2023-04-03T08:56:24;4.50;;;1.33;;
3274;SDS011;1649;53.672;10.064;2023-04-03T08:58:52;7.00;;;1.60;;
3274;SDS011;1649;53.672;10.064;2023-04-03T09:01:35;4.47;;;1.30;;
3274;SDS011;1649;53.672;10.064;2023-04-03T09:04:05;4.37;;;1.20;;
3274;SDS011;1649;53.672;10.064;2023-04-03T09:06:39;7.00;;;1.57;;
3274;SDS011;1649;53.672;10.064;2023-04-03T09:09:14;6.97;;;1.60;;
3274;SDS011;1649;53.672;10.064;2023-04-03T09:14:25;4.60;;;1.10;;
3274;SDS011;1649;53.672;10.064;2023-04-03T09:16:59;7.50;;;1.40;;
3274;SDS011;1649;53.672;10.064;2023-04-03T09:19:38;4.50;;;1.37;;
3274;SDS011;1649;53.672;10.064;2023-04-03T09:22:23;5.67;;;1.40;;
3274;SDS011;1649;53.672;10.064;2023-04-03T09:24:52;4.00;;;1.20;;
3274;SDS011;1649;53.672;10.064;2023-04-03T09:27:31;4.43;;;1.10;;
3274;SDS011;1649;53.672;10.064;2023-04-03T09:29:56;5.07;;;1.40;;
3274;SDS011;1649;53.672;10.064;2023-04-03T09:35:17;4.40;;;1.20;;
3274;SDS011;1649;53.672;10.064;2023-04-03T09:37:58;5.00;;;1.20;;
3274;SDS011;1649;53.672;10.064;2023-04-03T09:42:51;4.53;;;1.60;;
3274;SDS011;1649;53.672;10.064;2023-04-03T09:47:50;5.27;;;1.30;;
3274;SDS011;1649;53.672;10.064;2023-04-03T09:50:56;5.07;;;1.13;;
3274;SDS011;1649;53.672;10.064;2023-04-03T09:53:36;3.80;;;1.00;;
3274;SDS011;1649;53.672;10.064;2023-04-03T09:58:40;4.90;;;1.20;;
3274;SDS011;1649;53.672;10.064;2023-04-03T10:04:04;4.10;;;1.17;;
3274;SDS011;1649;53.672;10.064;2023-04-03T10:06:39;4.60;;;1.17;;
3274;SDS011;1649;53.672;10.064;2023-04-03T10:09:21;4.00;;;1.17;;
3274;SDS011;1649;53.672;10.064;2023-04-03T10:12:05;5.03;;;1.10;;
3274;SDS011;1649;53.672;10.064;2023-04-03T10:14:34;4.70;;;1.20;;
3274;SDS011;1649;53.672;10.064;2023-04-03T10:17:09;5.87;;;1.10;;
3274;SDS011;1649;53.672;10.064;2023-04-03T10:19:58;6.40;;;1.40;;
3274;SDS011;1649;53.672;10.064;2023-04-03T10:25:40;3.90;;;1.30;;
3274;SDS011;1649;53.672;10.064;2023-04-03T10:28:39;4.90;;;1.23;;
3274;SDS011;1649;53.672;10.064;2023-04-03T10:34:06;6.57;;;1.67;;
3274;SDS011;1649;53.672;10.064;2023-04-03T10:36:56;4.27;;;1.30;;
3274;SDS011;1649;53.672;10.064;2023-04-03T10:42:35;6.87;;;1.53;;
3274;SDS011;1649;53.672;10.064;2023-04-03T10:45:18;6.17;;;1.70;;
3274;SDS011;1649;53.672;10.064;2023-04-03T10:47:58;4.63;;;1.30;;
3274;SDS011;1649;53.672;10.064;2023-04-03T10:56:03;6.67;;;1.60;;
3274;SDS011;1649;53.672;10.064;2023-04-03T10:58:32;4.93;;;1.40;;
3274;SDS011;1649;53.672;10.064;2023-04-03T11:01:08;6.30;;;1.57;;
3274;SDS011;1649;53.672;10.064;2023-04-03T11:03:38;5.50;;;1.80;;
3274;SDS011;1649;53.672;10.064;2023-04-03T11:06:08;6.73;;;1.73;;
3274;SDS011;1649;53.672;10.064;2023-04-03T11:11:20;5.87;;;1.57;;
3274;SDS011;1649;53.672;10.064;2023-04-03T11:14:03;4.93;;;1.60;;
3274;SDS011;1649;53.672;10.064;2023-04-03T11:16:42;5.60;;;1.43;;
3274;SDS011;1649;53.672;10.064;2023-04-03T11:19:18;4.17;;;1.30;;
3274;SDS011;1649;53.672;10.064;2023-04-03T11:21:56;4.53;;;1.30;;
3274;SDS011;1649;53.672;10.064;2023-04-03T11:24:29;6.97;;;1.53;;
3274;SDS011;1649;53.672;10.064;2023-04-03T11:26:58;5.30;;;1.40;;
3274;SDS011;1649;53.672;10.064;2023-04-03T11:29:32;4.30;;;1.20;;
3274;SDS011;1649;53.672;10.064;2023-04-03T11:34:52;6.30;;;1.33;;
3274;SDS011;1649;53.672;10.064;2023-04-03T11:37:43;5.13;;;1.30;;
3274;SDS011;1649;53.672;10.064;2023-04-03T11:42:41;4.37;;;1.30;;
3274;SDS011;1649;53.672;10.064;2023-04-03T11:47:50;4.43;;;1.50;;
3274;SDS011;1649;53.672;10.064;2023-04-03T12:13:43;4.63;;;1.40;;
3274;SDS011;1649;53.672;10.064;2023-04-03T12:24:26;5.33;;;1.53;;
3274;SDS011;1649;53.672;10.064;2023-04-03T12:29:39;6.83;;;1.23;;
3274;SDS011;1649;53.672;10.064;2023-04-03T12:32:12;4.30;;;1.40;;
3274;SDS011;1649;53.672;10.064;2023-04-03T12:34:55;8.60;;;1.30;;
3274;SDS011;1649;53.672;10.064;2023-04-03T12:37:46;4.03;;;1.33;;
3274;SDS011;1649;53.672;10.064;2023-04-03T12:43:50;5.77;;;1.70;;
3274;SDS011;1649;53.672;10.064;2023-04-03T12:46:13;4.63;;;1.53;;
3274;SDS011;1649;53.672;10.064;2023-04-03T12:51:35;5.20;;;1.40;;
3274;SDS011;1649;53.672;10.064;2023-04-03T12:54:12;5.60;;;1.40;;
3274;SDS011;1649;53.672;10.064;2023-04-03T12:56:38;7.07;;;1.50;;
3274;SDS011;1649;53.672;10.064;2023-04-03T12:59:20;4.03;;;1.30;;
3274;SDS011;1649;53.672;10.064;2023-04-03T13:02:00;4.20;;;1.30;;
3274;SDS011;1649;53.672;10.064;2023-04-03T13:04:28;10.03;;;1.80;;
3274;SDS011;1649;53.672;10.064;2023-04-03T13:06:56;3.93;;;1.30;;
3274;SDS011;1649;53.672;10.064;2023-04-03T13:11:51;6.90;;;1.50;;
3274;SDS011;1649;53.672;10.064;2023-04-03T13:14:29;5.03;;;1.50;;
3274;SDS011;1649;53.672;10.064;2023-04-03T13:19:22;5.17;;;1.60;;
3274;SDS011;1649;53.672;10.064;2023-04-03T13:21:50;5.20;;;1.63;;
3274;SDS011;1649;53.672;10.064;2023-04-03T13:24:27;4.87;;;1.60;;
3274;SDS011;1649;53.672;10.064;2023-04-03T13:26:55;6.17;;;1.67;;
3274;SDS011;1649;53.672;10.064;2023-04-03T13:29:23;6.40;;;1.60;;
3274;SDS011;1649;53.672;10.064;2023-04-03T13:31:53;4.37;;;1.40;;
3274;SDS011;1649;53.672;10.064;2023-04-03T13:34:21;5.10;;;1.60;;
3274;SDS011;1649;53.672;10.064;2023-04-03T13:39:26;5.90;;;1.60;;
3274;SDS011;1649;53.672;10.064;2023-04-03T13:41:55;5.50;;;1.37;;
3274;SDS011;1649;53.672;10.064;2023-04-03T13:46:52;5.40;;;1.63;;
3274;SDS011;1649;53.672;10.064;2023-04-03T13:49:20;7.80;;;2.03;;
3274;SDS011;1649;53.672;10.064;2023-04-03T13:51:55;6.20;;;1.73;;
3274;SDS011;1649;53.672;10.064;2023-04-03T13:54:34;6.13;;;1.50;;
3274;SDS011;1649;53.672;10.064;2023-04-03T13:57:02;6.27;;;1.77;;
3274;SDS011;1649;53.672;10.064;2023-04-03T13:59:36;6.20;;;1.70;;
3274;SDS011;1649;53.672;10.064;2023-04-03T14:04:28;6.80;;;1.93;;
3274;SDS011;1649;53.672;10.064;2023-04-03T14:06:56;5.67;;;1.53;;
3274;SDS011;1649;53.672;10.064;2023-04-03T14:09:22;4.70;;;1.80;;
3274;SDS011;1649;53.672;10.064;2023-04-03T14:11:50;5.60;;;1.90;;
3274;SDS011;1649;53.672;10.064;2023-04-03T14:14:29;5.23;;;1.40;;
3274;SDS011;1649;53.672;10.064;2023-04-03T14:16:57;7.13;;;1.70;;
3274;SDS011;1649;53.672;10.064;2023-04-03T14:21:54;6.47;;;1.87;;
3274;SDS011;1649;53.672;10.064;2023-04-03T14:24:21;5.30;;;1.47;;
3274;SDS011;1649;53.672;10.064;2023-04-03T14:26:48;5.70;;;1.73;;
3274;SDS011;1649;53.672;10.064;2023-04-03T14:29:14;5.63;;;1.60;;
3274;SDS011;1649;53.672;10.064;2023-04-03T14:31:41;5.90;;;1.50;;
3274;SDS011;1649;53.672;10.064;2023-04-03T14:34:09;4.33;;;1.40;;
3274;SDS011;1649;53.672;10.064;2023-04-03T14:36:36;5.97;;;1.70;;
3274;SDS011;1649;53.672;10.064;2023-04-03T14:39:02;4.27;;;1.53;;
3274;SDS011;1649;53.672;10.064;2023-04-03T14:41:29;4.97;;;1.67;;
3274;SDS011;1649;53.672;10.064;2023-04-03T14:43:55;4.90;;;1.43;;
3274;SDS011;1649;53.672;10.064;2023-04-03T14:46:28;6.63;;;1.70;;
3274;SDS011;1649;53.672;10.064;2023-04-03T14:48:56;6.43;;;1.90;;
3274;SDS011;1649;53.672;10.064;2023-04-03T14:51:23;5.17;;;1.60;;
3274;SDS011;1649;53.672;10.064;2023-04-03T14:53:49;5.07;;;1.77;;
3274;SDS011;1649;53.672;10.064;2023-04-03T14:56:16;6.07;;;1.80;;
3274;SDS011;1649;53.672;10.064;2023-04-03T14:58:46;5.10;;;1.97;;
3274;SDS011;1649;53.672;10.064;2023-04-03T15:01:15;5.50;;;1.73;;
3274;SDS011;1649;53.672;10.064;2023-04-03T15:03:40;6.37;;;1.97;;
3274;SDS011;1649;53.672;10.064;2023-04-03T15:06:08;5.10;;;1.63;;
3274;SDS011;1649;53.672;10.064;2023-04-03T15:08:36;5.77;;;1.80;;
3274;SDS011;1649;53.672;10.064;2023-04-03T15:11:02;4.90;;;1.63;;
3274;SDS011;1649;53.672;10.064;2023-04-03T15:13:27;4.70;;;1.50;;
3274;SDS011;1649;53.672;10.064;2023-04-03T15:15:53;6.33;;;2.27;;
3274;SDS011;1649;53.672;10.064;2023-04-03T15:18:19;8.30;;;2.10;;
3274;SDS011;1649;53.672;10.064;2023-04-03T15:20:51;5.87;;;1.83;;
3274;SDS011;1649;53.672;10.064;2023-04-03T15:23:17;6.33;;;2.20;;
3274;SDS011;1649;53.672;10.064;2023-04-03T15:25:43;7.67;;;2.07;;
3274;SDS011;1649;53.672;10.064;2023-04-03T15:28:13;5.00;;;1.83;;
3274;SDS011;1649;53.672;10.064;2023-04-03T15:30:48;5.23;;;2.27;;
3274;SDS011;1649;53.672;10.064;2023-04-03T15:33:13;8.10;;;2.00;;
3274;SDS011;1649;53.672;10.064;2023-04-03T15:35:40;6.07;;;2.37;;
3274;SDS011;1649;53.672;10.064;2023-04-03T15:38:06;8.87;;;2.00;;
3274;SDS011;1649;53.672;10.064;2023-04-03T15:40:32;6.30;;;2.47;;
3274;SDS011;1649;53.672;10.064;2023-04-03T15:42:57;7.20;;;2.47;;
3274;SDS011;1649;53.672;10.064;2023-04-03T15:45:23;6.70;;;2.00;;
3274;SDS011;1649;53.672;10.064;2023-04-03T15:47:49;5.37;;;2.30;;
3274;SDS011;1649;53.672;10.064;2023-04-03T15:50:15;7.00;;;2.30;;
3274;SDS011;1649;53.672;10.064;2023-04-03T15:52:40;5.03;;;1.80;;
3274;SDS011;1649;53.672;10.064;2023-04-03T15:55:06;5.63;;;2.00;;
3274;SDS011;1649;53.672;10.064;2023-04-03T15:57:32;5.10;;;2.00;;
3274;SDS011;1649;53.672;10.064;2023-04-03T15:59:57;6.50;;;1.83;;
3274;SDS011;1649;53.672;10.064;2023-04-03T16:02:22;5.23;;;1.60;;
3274;SDS011;1649;53.672;10.064;2023-04-03T16:04:48;6.80;;;2.10;;
3274;SDS011;1649;53.672;10.064;2023-04-03T16:07:14;6.33;;;2.10;;
3274;SDS011;1649;53.672;10.064;2023-04-03T16:09:40;4.83;;;2.10;;
3274;SDS011;1649;53.672;10.064;2023-04-03T16:12:06;5.67;;;2.13;;
3274;SDS011;1649;53.672;10.064;2023-04-03T16:14:31;6.07;;;2.20;;
3274;SDS011;1649;53.672;10.064;2023-04-03T16:16:57;6.53;;;2.00;;
3274;SDS011;1649;53.672;10.064;2023-04-03T16:19:23;8.60;;;2.20;;
3274;SDS011;1649;53.672;10.064;2023-04-03T16:21:49;6.83;;;2.10;;
3274;SDS011;1649;53.672;10.064;2023-04-03T16:24:15;6.20;;;1.90;;
3274;SDS011;1649;53.672;10.064;2023-04-03T16:26:40;5.43;;;2.13;;
3274;SDS011;1649;53.672;10.064;2023-04-03T16:29:06;6.47;;;2.00;;
3274;SDS011;1649;53.672;10.064;2023-04-03T16:31:31;6.93;;;1.93;;
3274;SDS011;1649;53.672;10.064;2023-04-03T16:33:58;7.83;;;2.17;;
3274;SDS011;1649;53.672;10.064;2023-04-03T16:36:25;4.67;;;2.47;;
3274;SDS011;1649;53.672;10.064;2023-04-03T16:38:50;7.10;;;2.80;;
3274;SDS011;1649;53.672;10.064;2023-04-03T16:41:16;8.70;;;2.20;;
3274;SDS011;1649;53.672;10.064;2023-04-03T16:43:42;6.10;;;2.83;;
3274;SDS011;1649;53.672;10.064;2023-04-03T16:46:07;5.10;;;2.10;;
3274;SDS011;1649;53.672;10.064;2023-04-03T16:48:33;5.30;;;2.43;;
3274;SDS011;1649;53.672;10.064;2023-04-03T16:51:00;9.23;;;2.20;;
3274;SDS011;1649;53.672;10.064;2023-04-03T16:53:26;8.13;;;2.53;;